sensor_id;sensor_type;location;lat;lon;timestamp;P1;durP1;ratioP1;P2;durP2;ratioP2
52512;SDS011;38422;53.172;6.974;2023-07-31T00:00:49;3.40;;;1.90;;
52512;SDS011;38422;53.172;6.974;2023-07-31T00:03:15;3.55;;;1.73;;
52512;SDS011;38422;53.172;6.974;2023-07-31T00:05:41;5.68;;;2.10;;
52512;SDS011;38422;53.172;6.974;2023-07-31T00:08:06;3.78;;;1.90;;
52512;SDS011;38422;53.172;6.974;2023-07-31T00:10:32;3.58;;;1.88;;
52512;SDS011;38422;53.172;6.974;2023-07-31T00:12:58;2.83;;;1.60;;
52512;SDS011;38422;53.172;6.974;2023-07-31T00:15:24;4.47;;;1.80;;
52512;SDS011;38422;53.172;6.974;2023-07-31T00:17:50;13.07;;;2.10;;
52512;SDS011;38422;53.172;6.974;2023-07-31T00:20:15;3.75;;;2.05;;
52512;SDS011;38422;53.172;6.974;2023-07-31T00:22:41;3.95;;;1.90;;
52512;SDS011;38422;53.172;6.974;2023-07-31T00:25:07;4.03;;;2.05;;
52512;SDS011;38422;53.172;6.974;2023-07-31T00:27:33;3.88;;;2.00;;
52512;SDS011;38422;53.172;6.974;2023-07-31T00:29:58;4.32;;;1.92;;
52512;SDS011;38422;53.172;6.974;2023-07-31T00:32:24;4.13;;;1.73;;
52512;SDS011;38422;53.172;6.974;2023-07-31T00:34:50;2.92;;;1.73;;
52512;SDS011;38422;53.172;6.974;2023-07-31T00:37:15;3.47;;;1.65;;
52512;SDS011;38422;53.172;6.974;2023-07-31T00:39:41;4.65;;;1.92;;
52512;SDS011;38422;53.172;6.974;2023-07-31T00:42:07;2.65;;;1.65;;
52512;SDS011;38422;53.172;6.974;2023-07-31T00:44:33;3.55;;;1.63;;
52512;SDS011;38422;53.172;6.974;2023-07-31T00:46:58;2.70;;;1.70;;
52512;SDS011;38422;53.172;6.974;2023-07-31T00:49:25;4.05;;;1.75;;
52512;SDS011;38422;53.172;6.974;2023-07-31T00:51:51;3.90;;;1.63;;
52512;SDS011;38422;53.172;6.974;2023-07-31T00:54:17;3.27;;;1.90;;
52512;SDS011;38422;53.172;6.974;2023-07-31T00:56:44;4.45;;;1.88;;
52512;SDS011;38422;53.172;6.974;2023-07-31T00:59:13;4.72;;;1.80;;
52512;SDS011;38422;53.172;6.974;2023-07-31T01:01:39;3.92;;;1.90;;
52512;SDS011;38422;53.172;6.974;2023-07-31T01:04:05;4.10;;;2.08;;
52512;SDS011;38422;53.172;6.974;2023-07-31T01:06:45;2.83;;;1.77;;
52512;SDS011;38422;53.172;6.974;2023-07-31T01:09:27;3.85;;;1.85;;
52512;SDS011;38422;53.172;6.974;2023-07-31T01:12:02;4.50;;;2.22;;
52512;SDS011;38422;53.172;6.974;2023-07-31T01:16:55;2.72;;;1.80;;
52512;SDS011;38422;53.172;6.974;2023-07-31T01:19:21;2.97;;;1.90;;
52512;SDS011;38422;53.172;6.974;2023-07-31T01:27:38;4.18;;;1.92;;
52512;SDS011;38422;53.172;6.974;2023-07-31T01:30:15;4.30;;;2.00;;
52512;SDS011;38422;53.172;6.974;2023-07-31T01:32:43;4.30;;;2.10;;
52512;SDS011;38422;53.172;6.974;2023-07-31T01:35:13;3.53;;;1.75;;
52512;SDS011;38422;53.172;6.974;2023-07-31T01:37:39;3.65;;;1.92;;
52512;SDS011;38422;53.172;6.974;2023-07-31T01:40:06;2.63;;;1.73;;
52512;SDS011;38422;53.172;6.974;2023-07-31T01:42:32;3.53;;;1.80;;
52512;SDS011;38422;53.172;6.974;2023-07-31T01:44:58;4.80;;;1.92;;
52512;SDS011;38422;53.172;6.974;2023-07-31T01:47:23;3.45;;;1.80;;
52512;SDS011;38422;53.172;6.974;2023-07-31T01:49:49;3.58;;;1.90;;
52512;SDS011;38422;53.172;6.974;2023-07-31T01:52:15;3.60;;;1.70;;
52512;SDS011;38422;53.172;6.974;2023-07-31T01:54:40;3.50;;;1.70;;
52512;SDS011;38422;53.172;6.974;2023-07-31T01:57:06;4.30;;;1.58;;
52512;SDS011;38422;53.172;6.974;2023-07-31T01:59:32;3.60;;;1.73;;
52512;SDS011;38422;53.172;6.974;2023-07-31T02:01:57;3.67;;;1.60;;
52512;SDS011;38422;53.172;6.974;2023-07-31T02:04:23;3.65;;;1.50;;
52512;SDS011;38422;53.172;6.974;2023-07-31T02:06:49;2.85;;;1.40;;
52512;SDS011;38422;53.172;6.974;2023-07-31T02:09:14;2.30;;;1.40;;
52512;SDS011;38422;53.172;6.974;2023-07-31T02:11:40;2.28;;;1.38;;
52512;SDS011;38422;53.172;6.974;2023-07-31T02:14:06;2.05;;;1.30;;
52512;SDS011;38422;53.172;6.974;2023-07-31T02:16:31;3.50;;;1.30;;
52512;SDS011;38422;53.172;6.974;2023-07-31T02:18:57;3.83;;;1.63;;
52512;SDS011;38422;53.172;6.974;2023-07-31T02:21:23;2.33;;;1.10;;
52512;SDS011;38422;53.172;6.974;2023-07-31T02:23:48;1.73;;;1.02;;
52512;SDS011;38422;53.172;6.974;2023-07-31T02:26:14;1.95;;;1.20;;
52512;SDS011;38422;53.172;6.974;2023-07-31T02:28:40;3.08;;;1.27;;
52512;SDS011;38422;53.172;6.974;2023-07-31T02:31:08;1.52;;;0.90;;
52512;SDS011;38422;53.172;6.974;2023-07-31T02:33:33;1.98;;;1.00;;
52512;SDS011;38422;53.172;6.974;2023-07-31T02:35:59;3.20;;;1.05;;
52512;SDS011;38422;53.172;6.974;2023-07-31T02:38:25;1.92;;;0.90;;
52512;SDS011;38422;53.172;6.974;2023-07-31T02:40:51;1.83;;;1.10;;
52512;SDS011;38422;53.172;6.974;2023-07-31T02:43:16;1.40;;;0.70;;
52512;SDS011;38422;53.172;6.974;2023-07-31T02:45:42;1.55;;;0.90;;
52512;SDS011;38422;53.172;6.974;2023-07-31T02:48:08;1.73;;;0.88;;
52512;SDS011;38422;53.172;6.974;2023-07-31T02:50:33;1.35;;;0.80;;
52512;SDS011;38422;53.172;6.974;2023-07-31T02:52:59;2.67;;;0.60;;
52512;SDS011;38422;53.172;6.974;2023-07-31T02:55:25;1.10;;;0.70;;
52512;SDS011;38422;53.172;6.974;2023-07-31T02:57:50;0.70;;;0.52;;
52512;SDS011;38422;53.172;6.974;2023-07-31T03:00:17;1.38;;;0.60;;
52512;SDS011;38422;53.172;6.974;2023-07-31T03:02:43;2.40;;;0.60;;
52512;SDS011;38422;53.172;6.974;2023-07-31T03:05:08;0.90;;;0.43;;
52512;SDS011;38422;53.172;6.974;2023-07-31T03:07:34;0.90;;;0.50;;
52512;SDS011;38422;53.172;6.974;2023-07-31T03:10:00;1.75;;;0.60;;
52512;SDS011;38422;53.172;6.974;2023-07-31T03:12:26;1.15;;;0.57;;
52512;SDS011;38422;53.172;6.974;2023-07-31T03:14:52;1.02;;;0.40;;
52512;SDS011;38422;53.172;6.974;2023-07-31T03:17:18;0.90;;;0.50;;
52512;SDS011;38422;53.172;6.974;2023-07-31T03:19:43;1.05;;;0.60;;
52512;SDS011;38422;53.172;6.974;2023-07-31T03:22:09;0.77;;;0.50;;
52512;SDS011;38422;53.172;6.974;2023-07-31T03:24:35;1.55;;;0.60;;
52512;SDS011;38422;53.172;6.974;2023-07-31T03:27:00;1.88;;;0.60;;
52512;SDS011;38422;53.172;6.974;2023-07-31T03:29:26;2.28;;;0.52;;
52512;SDS011;38422;53.172;6.974;2023-07-31T03:31:52;1.70;;;0.60;;
52512;SDS011;38422;53.172;6.974;2023-07-31T03:34:17;0.57;;;0.50;;
52512;SDS011;38422;53.172;6.974;2023-07-31T03:36:43;2.35;;;0.60;;
52512;SDS011;38422;53.172;6.974;2023-07-31T03:39:09;1.42;;;0.50;;
52512;SDS011;38422;53.172;6.974;2023-07-31T03:41:35;2.33;;;0.68;;
52512;SDS011;38422;53.172;6.974;2023-07-31T03:44:01;2.45;;;0.63;;
52512;SDS011;38422;53.172;6.974;2023-07-31T03:46:26;1.27;;;0.65;;
52512;SDS011;38422;53.172;6.974;2023-07-31T03:48:54;3.13;;;0.77;;
52512;SDS011;38422;53.172;6.974;2023-07-31T03:51:20;1.88;;;0.47;;
52512;SDS011;38422;53.172;6.974;2023-07-31T03:53:46;1.10;;;0.55;;
52512;SDS011;38422;53.172;6.974;2023-07-31T03:56:11;0.70;;;0.70;;
52512;SDS011;38422;53.172;6.974;2023-07-31T03:58:38;2.28;;;0.70;;
52512;SDS011;38422;53.172;6.974;2023-07-31T04:01:04;0.90;;;0.43;;
52512;SDS011;38422;53.172;6.974;2023-07-31T04:03:30;1.63;;;0.65;;
52512;SDS011;38422;53.172;6.974;2023-07-31T04:05:55;1.63;;;0.52;;
52512;SDS011;38422;53.172;6.974;2023-07-31T04:08:21;1.15;;;0.70;;
52512;SDS011;38422;53.172;6.974;2023-07-31T04:10:47;0.45;;;0.43;;
52512;SDS011;38422;53.172;6.974;2023-07-31T04:13:13;1.58;;;0.63;;
52512;SDS011;38422;53.172;6.974;2023-07-31T04:15:39;3.72;;;0.88;;
52512;SDS011;38422;53.172;6.974;2023-07-31T04:18:05;0.57;;;0.55;;
52512;SDS011;38422;53.172;6.974;2023-07-31T04:20:31;2.95;;;0.85;;
52512;SDS011;38422;53.172;6.974;2023-07-31T04:22:57;3.33;;;0.70;;
52512;SDS011;38422;53.172;6.974;2023-07-31T04:25:22;1.50;;;0.70;;
52512;SDS011;38422;53.172;6.974;2023-07-31T04:27:48;4.78;;;0.60;;
52512;SDS011;38422;53.172;6.974;2023-07-31T04:30:13;3.25;;;0.70;;
52512;SDS011;38422;53.172;6.974;2023-07-31T04:32:39;2.30;;;0.70;;
52512;SDS011;38422;53.172;6.974;2023-07-31T04:35:05;1.63;;;0.60;;
52512;SDS011;38422;53.172;6.974;2023-07-31T04:37:31;2.42;;;0.50;;
52512;SDS011;38422;53.172;6.974;2023-07-31T04:40:03;1.00;;;0.50;;
52512;SDS011;38422;53.172;6.974;2023-07-31T04:42:29;0.65;;;0.38;;
52512;SDS011;38422;53.172;6.974;2023-07-31T04:44:54;0.60;;;0.35;;
52512;SDS011;38422;53.172;6.974;2023-07-31T04:47:20;0.57;;;0.40;;
52512;SDS011;38422;53.172;6.974;2023-07-31T04:49:45;1.40;;;0.47;;
52512;SDS011;38422;53.172;6.974;2023-07-31T04:52:11;0.68;;;0.50;;
52512;SDS011;38422;53.172;6.974;2023-07-31T04:54:38;1.60;;;0.55;;
52512;SDS011;38422;53.172;6.974;2023-07-31T04:57:05;1.15;;;0.55;;
52512;SDS011;38422;53.172;6.974;2023-07-31T04:59:31;0.68;;;0.60;;
52512;SDS011;38422;53.172;6.974;2023-07-31T05:01:57;0.60;;;0.60;;
52512;SDS011;38422;53.172;6.974;2023-07-31T05:04:23;0.68;;;0.50;;
52512;SDS011;38422;53.172;6.974;2023-07-31T05:06:48;1.38;;;0.75;;
52512;SDS011;38422;53.172;6.974;2023-07-31T05:09:14;0.80;;;0.60;;
52512;SDS011;38422;53.172;6.974;2023-07-31T05:11:40;0.70;;;0.60;;
52512;SDS011;38422;53.172;6.974;2023-07-31T05:14:07;1.35;;;0.70;;
52512;SDS011;38422;53.172;6.974;2023-07-31T05:16:34;1.13;;;0.80;;
52512;SDS011;38422;53.172;6.974;2023-07-31T05:18:59;0.93;;;0.70;;
52512;SDS011;38422;53.172;6.974;2023-07-31T05:21:25;1.20;;;0.68;;
52512;SDS011;38422;53.172;6.974;2023-07-31T05:23:51;1.33;;;0.73;;
52512;SDS011;38422;53.172;6.974;2023-07-31T05:26:16;2.80;;;0.80;;
52512;SDS011;38422;53.172;6.974;2023-07-31T05:28:42;1.20;;;0.70;;
52512;SDS011;38422;53.172;6.974;2023-07-31T05:31:08;0.82;;;0.73;;
52512;SDS011;38422;53.172;6.974;2023-07-31T05:33:34;1.77;;;0.90;;
52512;SDS011;38422;53.172;6.974;2023-07-31T05:35:59;2.05;;;0.80;;
52512;SDS011;38422;53.172;6.974;2023-07-31T05:38:25;2.25;;;0.60;;
52512;SDS011;38422;53.172;6.974;2023-07-31T05:40:51;0.77;;;0.70;;
52512;SDS011;38422;53.172;6.974;2023-07-31T05:43:17;0.98;;;0.65;;
52512;SDS011;38422;53.172;6.974;2023-07-31T05:45:43;2.80;;;0.77;;
52512;SDS011;38422;53.172;6.974;2023-07-31T05:48:08;1.10;;;0.70;;
52512;SDS011;38422;53.172;6.974;2023-07-31T05:50:34;1.70;;;0.70;;
52512;SDS011;38422;53.172;6.974;2023-07-31T05:53:00;1.10;;;0.70;;
52512;SDS011;38422;53.172;6.974;2023-07-31T05:55:26;3.20;;;0.60;;
52512;SDS011;38422;53.172;6.974;2023-07-31T05:57:54;1.15;;;0.70;;
52512;SDS011;38422;53.172;6.974;2023-07-31T06:00:20;2.45;;;0.80;;
52512;SDS011;38422;53.172;6.974;2023-07-31T06:02:49;1.58;;;0.60;;
52512;SDS011;38422;53.172;6.974;2023-07-31T06:05:15;0.90;;;0.50;;
52512;SDS011;38422;53.172;6.974;2023-07-31T06:07:40;2.22;;;0.60;;
52512;SDS011;38422;53.172;6.974;2023-07-31T06:10:06;3.15;;;0.85;;
52512;SDS011;38422;53.172;6.974;2023-07-31T06:12:33;3.25;;;0.70;;
52512;SDS011;38422;53.172;6.974;2023-07-31T06:15:00;3.83;;;0.90;;
52512;SDS011;38422;53.172;6.974;2023-07-31T06:17:27;1.73;;;0.80;;
52512;SDS011;38422;53.172;6.974;2023-07-31T06:19:52;2.08;;;0.70;;
52512;SDS011;38422;53.172;6.974;2023-07-31T06:22:18;2.40;;;0.60;;
52512;SDS011;38422;53.172;6.974;2023-07-31T06:24:44;1.50;;;0.70;;
52512;SDS011;38422;53.172;6.974;2023-07-31T06:27:10;1.83;;;0.70;;
52512;SDS011;38422;53.172;6.974;2023-07-31T06:29:36;2.38;;;0.90;;
52512;SDS011;38422;53.172;6.974;2023-07-31T06:32:02;0.95;;;0.50;;
52512;SDS011;38422;53.172;6.974;2023-07-31T06:34:28;2.63;;;0.82;;
52512;SDS011;38422;53.172;6.974;2023-07-31T06:36:55;1.90;;;0.80;;
52512;SDS011;38422;53.172;6.974;2023-07-31T06:39:21;2.80;;;0.98;;
52512;SDS011;38422;53.172;6.974;2023-07-31T06:41:47;2.22;;;0.93;;
52512;SDS011;38422;53.172;6.974;2023-07-31T06:44:13;2.17;;;0.98;;
52512;SDS011;38422;53.172;6.974;2023-07-31T06:46:38;2.67;;;1.10;;
52512;SDS011;38422;53.172;6.974;2023-07-31T06:49:04;2.72;;;1.10;;
52512;SDS011;38422;53.172;6.974;2023-07-31T06:51:30;4.25;;;1.40;;
52512;SDS011;38422;53.172;6.974;2023-07-31T06:53:57;6.10;;;2.17;;
52512;SDS011;38422;53.172;6.974;2023-07-31T06:56:23;9.82;;;3.05;;
52512;SDS011;38422;53.172;6.974;2023-07-31T06:58:48;9.80;;;3.30;;
52512;SDS011;38422;53.172;6.974;2023-07-31T07:01:14;9.77;;;3.70;;
52512;SDS011;38422;53.172;6.974;2023-07-31T07:03:40;10.95;;;3.58;;
52512;SDS011;38422;53.172;6.974;2023-07-31T07:06:06;10.65;;;4.07;;
52512;SDS011;38422;53.172;6.974;2023-07-31T07:08:32;13.40;;;4.45;;
52512;SDS011;38422;53.172;6.974;2023-07-31T07:10:57;13.77;;;4.43;;
52512;SDS011;38422;53.172;6.974;2023-07-31T07:13:23;17.85;;;5.00;;
52512;SDS011;38422;53.172;6.974;2023-07-31T07:15:49;13.73;;;4.60;;
52512;SDS011;38422;53.172;6.974;2023-07-31T07:18:15;11.57;;;3.73;;
52512;SDS011;38422;53.172;6.974;2023-07-31T07:20:50;11.07;;;3.72;;
52512;SDS011;38422;53.172;6.974;2023-07-31T07:23:16;10.68;;;3.95;;
52512;SDS011;38422;53.172;6.974;2023-07-31T07:25:43;10.18;;;3.80;;
52512;SDS011;38422;53.172;6.974;2023-07-31T07:28:11;12.50;;;4.30;;
52512;SDS011;38422;53.172;6.974;2023-07-31T07:30:37;13.05;;;4.50;;
52512;SDS011;38422;53.172;6.974;2023-07-31T07:33:03;13.18;;;4.50;;
52512;SDS011;38422;53.172;6.974;2023-07-31T07:35:28;14.68;;;4.95;;
52512;SDS011;38422;53.172;6.974;2023-07-31T07:37:55;11.43;;;4.57;;
52512;SDS011;38422;53.172;6.974;2023-07-31T07:42:47;10.48;;;3.95;;
52512;SDS011;38422;53.172;6.974;2023-07-31T07:45:13;10.18;;;4.22;;
52512;SDS011;38422;53.172;6.974;2023-07-31T07:47:41;11.80;;;4.45;;
52512;SDS011;38422;53.172;6.974;2023-07-31T07:50:07;11.25;;;3.92;;
52512;SDS011;38422;53.172;6.974;2023-07-31T07:52:40;12.02;;;4.28;;
52512;SDS011;38422;53.172;6.974;2023-07-31T07:55:06;10.23;;;3.88;;
52512;SDS011;38422;53.172;6.974;2023-07-31T07:57:32;7.83;;;3.13;;
52512;SDS011;38422;53.172;6.974;2023-07-31T07:59:58;8.07;;;3.22;;
52512;SDS011;38422;53.172;6.974;2023-07-31T08:02:23;10.50;;;3.85;;
52512;SDS011;38422;53.172;6.974;2023-07-31T08:04:49;4.47;;;2.13;;
52512;SDS011;38422;53.172;6.974;2023-07-31T08:07:15;7.13;;;2.40;;
52512;SDS011;38422;53.172;6.974;2023-07-31T08:09:40;6.13;;;2.47;;
52512;SDS011;38422;53.172;6.974;2023-07-31T08:12:06;6.60;;;2.60;;
52512;SDS011;38422;53.172;6.974;2023-07-31T08:14:32;4.30;;;2.58;;
52512;SDS011;38422;53.172;6.974;2023-07-31T08:16:58;3.95;;;2.35;;
52512;SDS011;38422;53.172;6.974;2023-07-31T08:19:24;5.85;;;2.30;;
52512;SDS011;38422;53.172;6.974;2023-07-31T08:21:49;5.88;;;2.42;;
52512;SDS011;38422;53.172;6.974;2023-07-31T08:24:15;5.07;;;2.22;;
52512;SDS011;38422;53.172;6.974;2023-07-31T08:26:41;4.72;;;2.10;;
52512;SDS011;38422;53.172;6.974;2023-07-31T08:29:07;6.40;;;2.33;;
52512;SDS011;38422;53.172;6.974;2023-07-31T08:31:33;6.50;;;2.28;;
52512;SDS011;38422;53.172;6.974;2023-07-31T08:33:59;4.03;;;1.95;;
52512;SDS011;38422;53.172;6.974;2023-07-31T08:36:25;4.68;;;2.03;;
52512;SDS011;38422;53.172;6.974;2023-07-31T08:38:51;4.80;;;2.35;;
52512;SDS011;38422;53.172;6.974;2023-07-31T08:41:16;4.40;;;2.25;;
52512;SDS011;38422;53.172;6.974;2023-07-31T08:43:43;3.72;;;2.05;;
52512;SDS011;38422;53.172;6.974;2023-07-31T08:46:10;4.15;;;2.20;;
52512;SDS011;38422;53.172;6.974;2023-07-31T08:48:37;3.85;;;2.05;;
52512;SDS011;38422;53.172;6.974;2023-07-31T08:51:03;5.75;;;2.40;;
52512;SDS011;38422;53.172;6.974;2023-07-31T08:53:29;3.67;;;2.22;;
52512;SDS011;38422;53.172;6.974;2023-07-31T08:55:55;4.45;;;2.20;;
52512;SDS011;38422;53.172;6.974;2023-07-31T08:58:23;4.55;;;1.95;;
52512;SDS011;38422;53.172;6.974;2023-07-31T09:00:50;4.00;;;1.88;;
52512;SDS011;38422;53.172;6.974;2023-07-31T09:05:44;4.90;;;2.13;;
52512;SDS011;38422;53.172;6.974;2023-07-31T09:08:12;3.55;;;1.92;;
52512;SDS011;38422;53.172;6.974;2023-07-31T09:10:42;4.38;;;1.88;;
52512;SDS011;38422;53.172;6.974;2023-07-31T09:13:10;4.00;;;1.60;;
52512;SDS011;38422;53.172;6.974;2023-07-31T09:15:36;4.65;;;1.75;;
52512;SDS011;38422;53.172;6.974;2023-07-31T09:18:03;5.07;;;1.77;;
52512;SDS011;38422;53.172;6.974;2023-07-31T09:20:30;4.00;;;1.40;;
52512;SDS011;38422;53.172;6.974;2023-07-31T09:23:04;4.43;;;1.63;;
52512;SDS011;38422;53.172;6.974;2023-07-31T09:25:35;3.97;;;1.55;;
52512;SDS011;38422;53.172;6.974;2023-07-31T09:28:02;4.85;;;1.30;;
52512;SDS011;38422;53.172;6.974;2023-07-31T09:30:29;4.30;;;1.58;;
52512;SDS011;38422;53.172;6.974;2023-07-31T09:33:03;4.30;;;1.67;;
52512;SDS011;38422;53.172;6.974;2023-07-31T09:35:31;3.95;;;1.30;;
52512;SDS011;38422;53.172;6.974;2023-07-31T09:38:00;1.67;;;1.00;;
52512;SDS011;38422;53.172;6.974;2023-07-31T09:43:01;4.57;;;1.40;;
52512;SDS011;38422;53.172;6.974;2023-07-31T09:45:28;3.90;;;1.30;;
52512;SDS011;38422;53.172;6.974;2023-07-31T09:47:55;2.22;;;0.80;;
52512;SDS011;38422;53.172;6.974;2023-07-31T09:50:22;2.38;;;0.90;;
52512;SDS011;38422;53.172;6.974;2023-07-31T09:52:49;3.17;;;1.20;;
52512;SDS011;38422;53.172;6.974;2023-07-31T09:57:48;2.42;;;0.88;;
52512;SDS011;38422;53.172;6.974;2023-07-31T10:00:15;3.45;;;0.90;;
52512;SDS011;38422;53.172;6.974;2023-07-31T10:02:46;0.82;;;0.70;;
52512;SDS011;38422;53.172;6.974;2023-07-31T10:05:13;0.85;;;0.70;;
52512;SDS011;38422;53.172;6.974;2023-07-31T10:07:45;1.63;;;0.70;;
52512;SDS011;38422;53.172;6.974;2023-07-31T10:10:22;0.93;;;0.60;;
52512;SDS011;38422;53.172;6.974;2023-07-31T10:12:50;2.03;;;0.60;;
52512;SDS011;38422;53.172;6.974;2023-07-31T10:15:18;1.10;;;0.60;;
52512;SDS011;38422;53.172;6.974;2023-07-31T10:17:46;1.27;;;0.45;;
52512;SDS011;38422;53.172;6.974;2023-07-31T10:20:13;1.98;;;0.40;;
52512;SDS011;38422;53.172;6.974;2023-07-31T10:22:41;1.52;;;0.50;;
52512;SDS011;38422;53.172;6.974;2023-07-31T10:25:08;1.30;;;0.60;;
52512;SDS011;38422;53.172;6.974;2023-07-31T10:27:40;1.45;;;0.40;;
52512;SDS011;38422;53.172;6.974;2023-07-31T10:30:11;0.98;;;0.40;;
52512;SDS011;38422;53.172;6.974;2023-07-31T10:32:40;1.27;;;0.30;;
52512;SDS011;38422;53.172;6.974;2023-07-31T10:35:08;1.10;;;0.35;;
52512;SDS011;38422;53.172;6.974;2023-07-31T10:37:38;0.85;;;0.40;;
52512;SDS011;38422;53.172;6.974;2023-07-31T10:42:53;0.60;;;0.40;;
52512;SDS011;38422;53.172;6.974;2023-07-31T10:45:34;1.85;;;0.70;;
52512;SDS011;38422;53.172;6.974;2023-07-31T10:50:32;6.88;;;6.20;;
52512;SDS011;38422;53.172;6.974;2023-07-31T10:53:02;5.03;;;4.53;;
52512;SDS011;38422;53.172;6.974;2023-07-31T10:58:00;14.38;;;13.18;;
52512;SDS011;38422;53.172;6.974;2023-07-31T11:00:37;14.75;;;13.35;;
52512;SDS011;38422;53.172;6.974;2023-07-31T11:03:13;12.88;;;11.77;;
52512;SDS011;38422;53.172;6.974;2023-07-31T11:05:44;17.83;;;16.35;;
52512;SDS011;38422;53.172;6.974;2023-07-31T11:08:29;13.38;;;12.18;;
52512;SDS011;38422;53.172;6.974;2023-07-31T11:13:32;10.55;;;9.32;;
52512;SDS011;38422;53.172;6.974;2023-07-31T11:15:58;1.92;;;1.60;;
52512;SDS011;38422;53.172;6.974;2023-07-31T11:18:24;1.00;;;0.80;;
52512;SDS011;38422;53.172;6.974;2023-07-31T11:20:52;1.08;;;0.30;;
52512;SDS011;38422;53.172;6.974;2023-07-31T11:23:19;0.30;;;0.22;;
52512;SDS011;38422;53.172;6.974;2023-07-31T11:25:45;0.20;;;0.20;;
52512;SDS011;38422;53.172;6.974;2023-07-31T11:28:14;0.20;;;0.20;;
52512;SDS011;38422;53.172;6.974;2023-07-31T11:30:42;0.32;;;0.20;;
52512;SDS011;38422;53.172;6.974;2023-07-31T11:35:36;1.05;;;0.20;;
52512;SDS011;38422;53.172;6.974;2023-07-31T11:38:23;0.20;;;0.15;;
52512;SDS011;38422;53.172;6.974;2023-07-31T11:40:51;0.35;;;0.20;;
52512;SDS011;38422;53.172;6.974;2023-07-31T11:43:18;1.17;;;0.10;;
52512;SDS011;38422;53.172;6.974;2023-07-31T11:45:46;0.10;;;0.10;;
52512;SDS011;38422;53.172;6.974;2023-07-31T11:48:34;0.20;;;0.10;;
52512;SDS011;38422;53.172;6.974;2023-07-31T11:51:02;1.73;;;0.20;;
52512;SDS011;38422;53.172;6.974;2023-07-31T11:56:19;0.20;;;0.10;;
52512;SDS011;38422;53.172;6.974;2023-07-31T11:58:46;0.10;;;0.10;;
52512;SDS011;38422;53.172;6.974;2023-07-31T12:01:14;0.15;;;0.10;;
52512;SDS011;38422;53.172;6.974;2023-07-31T12:03:43;0.25;;;0.10;;
52512;SDS011;38422;53.172;6.974;2023-07-31T12:06:10;0.80;;;0.10;;
52512;SDS011;38422;53.172;6.974;2023-07-31T12:08:36;0.30;;;0.10;;
52512;SDS011;38422;53.172;6.974;2023-07-31T12:11:05;0.10;;;0.10;;
52512;SDS011;38422;53.172;6.974;2023-07-31T12:13:34;0.10;;;0.10;;
52512;SDS011;38422;53.172;6.974;2023-07-31T12:16:01;0.22;;;0.10;;
52512;SDS011;38422;53.172;6.974;2023-07-31T12:18:29;0.10;;;0.10;;
52512;SDS011;38422;53.172;6.974;2023-07-31T12:21:02;1.00;;;0.10;;
52512;SDS011;38422;53.172;6.974;2023-07-31T12:23:31;0.10;;;0.10;;
52512;SDS011;38422;53.172;6.974;2023-07-31T12:26:04;0.52;;;0.20;;
52512;SDS011;38422;53.172;6.974;2023-07-31T12:28:42;1.35;;;0.20;;
52512;SDS011;38422;53.172;6.974;2023-07-31T12:31:12;0.20;;;0.20;;
52512;SDS011;38422;53.172;6.974;2023-07-31T12:33:40;0.38;;;0.20;;
52512;SDS011;38422;53.172;6.974;2023-07-31T12:36:07;0.45;;;0.30;;
52512;SDS011;38422;53.172;6.974;2023-07-31T12:38:34;0.30;;;0.30;;
52512;SDS011;38422;53.172;6.974;2023-07-31T12:41:00;1.88;;;0.30;;
52512;SDS011;38422;53.172;6.974;2023-07-31T12:43:26;0.77;;;0.30;;
52512;SDS011;38422;53.172;6.974;2023-07-31T12:45:53;1.35;;;0.40;;
52512;SDS011;38422;53.172;6.974;2023-07-31T12:48:20;0.90;;;0.35;;
52512;SDS011;38422;53.172;6.974;2023-07-31T12:50:46;0.57;;;0.40;;
52512;SDS011;38422;53.172;6.974;2023-07-31T12:53:11;0.70;;;0.38;;
52512;SDS011;38422;53.172;6.974;2023-07-31T12:55:37;0.85;;;0.50;;
52512;SDS011;38422;53.172;6.974;2023-07-31T12:58:03;1.90;;;0.65;;
52512;SDS011;38422;53.172;6.974;2023-07-31T13:00:29;1.05;;;0.45;;
52512;SDS011;38422;53.172;6.974;2023-07-31T13:02:55;1.13;;;0.50;;
52512;SDS011;38422;53.172;6.974;2023-07-31T13:05:20;1.52;;;0.47;;
52512;SDS011;38422;53.172;6.974;2023-07-31T13:07:46;1.40;;;0.55;;
52512;SDS011;38422;53.172;6.974;2023-07-31T13:10:13;1.77;;;0.60;;
52512;SDS011;38422;53.172;6.974;2023-07-31T13:12:38;1.80;;;0.55;;
52512;SDS011;38422;53.172;6.974;2023-07-31T13:15:04;3.40;;;0.60;;
52512;SDS011;38422;53.172;6.974;2023-07-31T13:17:31;1.60;;;0.50;;
52512;SDS011;38422;53.172;6.974;2023-07-31T13:19:57;1.38;;;0.70;;
52512;SDS011;38422;53.172;6.974;2023-07-31T13:22:23;2.10;;;0.80;;
52512;SDS011;38422;53.172;6.974;2023-07-31T13:24:49;1.60;;;0.70;;
52512;SDS011;38422;53.172;6.974;2023-07-31T13:27:15;1.08;;;0.60;;
52512;SDS011;38422;53.172;6.974;2023-07-31T13:29:49;1.25;;;0.73;;
52512;SDS011;38422;53.172;6.974;2023-07-31T13:32:16;1.52;;;0.70;;
52512;SDS011;38422;53.172;6.974;2023-07-31T13:34:43;2.38;;;0.70;;
52512;SDS011;38422;53.172;6.974;2023-07-31T13:37:09;1.88;;;0.70;;
52512;SDS011;38422;53.172;6.974;2023-07-31T13:39:35;2.13;;;0.80;;
52512;SDS011;38422;53.172;6.974;2023-07-31T13:42:02;4.03;;;1.10;;
52512;SDS011;38422;53.172;6.974;2023-07-31T13:44:28;4.20;;;1.08;;
52512;SDS011;38422;53.172;6.974;2023-07-31T13:46:54;1.98;;;0.93;;
52512;SDS011;38422;53.172;6.974;2023-07-31T13:49:20;4.78;;;1.00;;
52512;SDS011;38422;53.172;6.974;2023-07-31T13:51:45;2.15;;;1.02;;
52512;SDS011;38422;53.172;6.974;2023-07-31T13:54:11;2.55;;;0.90;;
52512;SDS011;38422;53.172;6.974;2023-07-31T13:56:37;2.83;;;1.02;;
52512;SDS011;38422;53.172;6.974;2023-07-31T13:59:03;4.95;;;1.00;;
52512;SDS011;38422;53.172;6.974;2023-07-31T14:01:29;2.22;;;0.90;;
52512;SDS011;38422;53.172;6.974;2023-07-31T14:03:55;3.93;;;1.00;;
52512;SDS011;38422;53.172;6.974;2023-07-31T14:06:21;4.15;;;1.20;;
52512;SDS011;38422;53.172;6.974;2023-07-31T14:08:47;3.30;;;1.00;;
52512;SDS011;38422;53.172;6.974;2023-07-31T14:11:12;2.17;;;0.98;;
52512;SDS011;38422;53.172;6.974;2023-07-31T14:13:38;3.75;;;1.38;;
52512;SDS011;38422;53.172;6.974;2023-07-31T14:16:04;2.85;;;1.20;;
52512;SDS011;38422;53.172;6.974;2023-07-31T14:18:30;3.22;;;1.20;;
52512;SDS011;38422;53.172;6.974;2023-07-31T14:20:55;3.63;;;1.10;;
52512;SDS011;38422;53.172;6.974;2023-07-31T14:23:21;4.18;;;1.20;;
52512;SDS011;38422;53.172;6.974;2023-07-31T14:25:47;3.15;;;1.10;;
52512;SDS011;38422;53.172;6.974;2023-07-31T14:28:13;4.45;;;1.40;;
52512;SDS011;38422;53.172;6.974;2023-07-31T14:30:39;4.05;;;1.42;;
52512;SDS011;38422;53.172;6.974;2023-07-31T14:33:04;3.70;;;1.25;;
52512;SDS011;38422;53.172;6.974;2023-07-31T14:35:30;4.00;;;1.60;;
52512;SDS011;38422;53.172;6.974;2023-07-31T14:37:56;5.28;;;1.42;;
52512;SDS011;38422;53.172;6.974;2023-07-31T14:40:22;4.32;;;1.67;;
52512;SDS011;38422;53.172;6.974;2023-07-31T14:42:47;5.82;;;1.70;;
52512;SDS011;38422;53.172;6.974;2023-07-31T14:45:13;4.40;;;1.80;;
52512;SDS011;38422;53.172;6.974;2023-07-31T14:47:39;6.28;;;1.98;;
52512;SDS011;38422;53.172;6.974;2023-07-31T14:50:05;4.80;;;1.60;;
52512;SDS011;38422;53.172;6.974;2023-07-31T14:52:31;4.97;;;1.53;;
52512;SDS011;38422;53.172;6.974;2023-07-31T14:54:57;4.75;;;1.60;;
52512;SDS011;38422;53.172;6.974;2023-07-31T14:57:22;6.00;;;1.85;;
52512;SDS011;38422;53.172;6.974;2023-07-31T14:59:48;3.75;;;1.70;;
52512;SDS011;38422;53.172;6.974;2023-07-31T15:02:14;5.03;;;1.60;;
52512;SDS011;38422;53.172;6.974;2023-07-31T15:04:40;6.00;;;1.80;;
52512;SDS011;38422;53.172;6.974;2023-07-31T15:07:06;5.68;;;2.10;;
52512;SDS011;38422;53.172;6.974;2023-07-31T15:09:31;7.38;;;2.15;;
52512;SDS011;38422;53.172;6.974;2023-07-31T15:11:57;6.57;;;2.30;;
52512;SDS011;38422;53.172;6.974;2023-07-31T15:14:23;8.20;;;2.47;;
52512;SDS011;38422;53.172;6.974;2023-07-31T15:16:49;9.93;;;2.47;;